sensor_id;sensor_type;location;lat;lon;timestamp;temperature;humidity
20416;DHT22;10367;52.202;5.996;2024-02-26T00:00:32;5.10;99.90
20416;DHT22;10367;52.202;5.996;2024-02-26T00:03:02;5.00;99.90
20416;DHT22;10367;52.202;5.996;2024-02-26T00:05:31;5.00;99.90
20416;DHT22;10367;52.202;5.996;2024-02-26T00:08:00;5.00;99.90
20416;DHT22;10367;52.202;5.996;2024-02-26T00:10:32;4.90;99.90
20416;DHT22;10367;52.202;5.996;2024-02-26T00:13:01;5.00;99.90
20416;DHT22;10367;52.202;5.996;2024-02-26T00:15:29;4.90;99.90
20416;DHT22;10367;52.202;5.996;2024-02-26T00:17:59;4.90;99.90
20416;DHT22;10367;52.202;5.996;2024-02-26T00:20:29;4.80;99.90
20416;DHT22;10367;52.202;5.996;2024-02-26T00:22:58;4.80;99.90
20416;DHT22;10367;52.202;5.996;2024-02-26T00:25:27;4.80;99.90
20416;DHT22;10367;52.202;5.996;2024-02-26T00:27:55;4.70;99.90
20416;DHT22;10367;52.202;5.996;2024-02-26T00:30:25;4.80;99.90
20416;DHT22;10367;52.202;5.996;2024-02-26T00:32:54;4.70;99.90
20416;DHT22;10367;52.202;5.996;2024-02-26T00:35:24;4.70;99.90
20416;DHT22;10367;52.202;5.996;2024-02-26T00:37:53;4.70;99.90
20416;DHT22;10367;52.202;5.996;2024-02-26T00:40:22;4.60;99.90
20416;DHT22;10367;52.202;5.996;2024-02-26T00:42:50;4.60;99.90
20416;DHT22;10367;52.202;5.996;2024-02-26T00:45:19;4.50;99.90
20416;DHT22;10367;52.202;5.996;2024-02-26T00:47:48;4.40;99.90
20416;DHT22;10367;52.202;5.996;2024-02-26T00:50:17;4.40;99.90
20416;DHT22;10367;52.202;5.996;2024-02-26T00:52:48;4.40;99.90
20416;DHT22;10367;52.202;5.996;2024-02-26T00:55:16;4.40;99.90
20416;DHT22;10367;52.202;5.996;2024-02-26T00:57:45;4.40;99.90
20416;DHT22;10367;52.202;5.996;2024-02-26T01:00:15;4.30;99.90
20416;DHT22;10367;52.202;5.996;2024-02-26T01:02:44;4.30;99.90
20416;DHT22;10367;52.202;5.996;2024-02-26T01:05:14;4.30;99.90
20416;DHT22;10367;52.202;5.996;2024-02-26T01:07:43;4.30;99.90
20416;DHT22;10367;52.202;5.996;2024-02-26T01:10:14;4.20;99.90
20416;DHT22;10367;52.202;5.996;2024-02-26T01:12:43;4.20;99.90
20416;DHT22;10367;52.202;5.996;2024-02-26T01:15:12;4.20;99.90
20416;DHT22;10367;52.202;5.996;2024-02-26T01:17:41;4.20;99.90
20416;DHT22;10367;52.202;5.996;2024-02-26T01:20:10;4.20;99.90
20416;DHT22;10367;52.202;5.996;2024-02-26T01:22:39;4.20;99.90
20416;DHT22;10367;52.202;5.996;2024-02-26T01:25:08;4.20;99.90
20416;DHT22;10367;52.202;5.996;2024-02-26T01:27:39;4.20;99.90
20416;DHT22;10367;52.202;5.996;2024-02-26T01:30:11;4.20;99.90
20416;DHT22;10367;52.202;5.996;2024-02-26T01:32:43;4.20;99.90
20416;DHT22;10367;52.202;5.996;2024-02-26T01:35:13;4.20;99.90
20416;DHT22;10367;52.202;5.996;2024-02-26T01:37:42;4.20;99.90
20416;DHT22;10367;52.202;5.996;2024-02-26T01:40:12;4.20;99.90
20416;DHT22;10367;52.202;5.996;2024-02-26T01:42:46;4.20;99.90
20416;DHT22;10367;52.202;5.996;2024-02-26T01:45:16;4.20;99.90
20416;DHT22;10367;52.202;5.996;2024-02-26T01:47:51;4.20;99.90
20416;DHT22;10367;52.202;5.996;2024-02-26T01:50:21;4.30;99.90
20416;DHT22;10367;52.202;5.996;2024-02-26T01:52:51;4.30;99.90
20416;DHT22;10367;52.202;5.996;2024-02-26T01:55:23;4.30;99.90
20416;DHT22;10367;52.202;5.996;2024-02-26T01:57:54;4.30;99.90
20416;DHT22;10367;52.202;5.996;2024-02-26T02:00:23;4.40;99.90
20416;DHT22;10367;52.202;5.996;2024-02-26T02:02:53;4.40;99.90
20416;DHT22;10367;52.202;5.996;2024-02-26T02:05:23;4.40;99.90
20416;DHT22;10367;52.202;5.996;2024-02-26T02:07:53;4.40;99.90
20416;DHT22;10367;52.202;5.996;2024-02-26T02:10:23;4.40;99.90
20416;DHT22;10367;52.202;5.996;2024-02-26T02:12:54;4.40;99.90
20416;DHT22;10367;52.202;5.996;2024-02-26T02:15:23;4.40;99.90
20416;DHT22;10367;52.202;5.996;2024-02-26T02:17:52;4.40;99.90
20416;DHT22;10367;52.202;5.996;2024-02-26T02:20:26;4.40;99.90
20416;DHT22;10367;52.202;5.996;2024-02-26T02:22:55;4.40;99.90
20416;DHT22;10367;52.202;5.996;2024-02-26T02:25:24;4.40;99.90
20416;DHT22;10367;52.202;5.996;2024-02-26T02:27:53;4.40;99.90
20416;DHT22;10367;52.202;5.996;2024-02-26T02:30:25;4.50;99.90
20416;DHT22;10367;52.202;5.996;2024-02-26T02:32:55;4.50;99.90
20416;DHT22;10367;52.202;5.996;2024-02-26T02:35:27;4.50;99.90
20416;DHT22;10367;52.202;5.996;2024-02-26T02:37:57;4.50;99.90
20416;DHT22;10367;52.202;5.996;2024-02-26T02:40:26;4.50;99.90
20416;DHT22;10367;52.202;5.996;2024-02-26T02:42:55;4.50;99.90
20416;DHT22;10367;52.202;5.996;2024-02-26T02:45:24;4.50;99.90
20416;DHT22;10367;52.202;5.996;2024-02-26T02:47:53;4.50;99.90
20416;DHT22;10367;52.202;5.996;2024-02-26T02:50:22;4.50;99.90
20416;DHT22;10367;52.202;5.996;2024-02-26T02:52:53;4.50;99.90
20416;DHT22;10367;52.202;5.996;2024-02-26T02:55:22;4.50;99.90
20416;DHT22;10367;52.202;5.996;2024-02-26T02:57:51;4.50;99.90
20416;DHT22;10367;52.202;5.996;2024-02-26T03:00:20;4.50;99.90
20416;DHT22;10367;52.202;5.996;2024-02-26T03:02:50;4.50;99.90
20416;DHT22;10367;52.202;5.996;2024-02-26T03:05:19;4.50;99.90
20416;DHT22;10367;52.202;5.996;2024-02-26T03:07:48;4.60;99.90
20416;DHT22;10367;52.202;5.996;2024-02-26T03:10:19;4.60;99.90
20416;DHT22;10367;52.202;5.996;2024-02-26T03:12:49;4.60;99.90
20416;DHT22;10367;52.202;5.996;2024-02-26T03:15:18;4.60;99.90
20416;DHT22;10367;52.202;5.996;2024-02-26T03:17:47;4.60;99.90
20416;DHT22;10367;52.202;5.996;2024-02-26T03:20:16;4.60;99.90
20416;DHT22;10367;52.202;5.996;2024-02-26T03:22:46;4.60;99.90
20416;DHT22;10367;52.202;5.996;2024-02-26T03:25:15;4.60;99.90
20416;DHT22;10367;52.202;5.996;2024-02-26T03:27:45;4.60;99.90
20416;DHT22;10367;52.202;5.996;2024-02-26T03:30:14;4.60;99.90
20416;DHT22;10367;52.202;5.996;2024-02-26T03:32:43;4.60;99.90
20416;DHT22;10367;52.202;5.996;2024-02-26T03:35:12;4.60;99.90
20416;DHT22;10367;52.202;5.996;2024-02-26T03:37:41;4.70;99.90
20416;DHT22;10367;52.202;5.996;2024-02-26T03:40:11;4.60;99.90
20416;DHT22;10367;52.202;5.996;2024-02-26T03:42:42;4.60;99.90
20416;DHT22;10367;52.202;5.996;2024-02-26T03:45:12;4.60;99.90
20416;DHT22;10367;52.202;5.996;2024-02-26T03:47:41;4.60;99.90
20416;DHT22;10367;52.202;5.996;2024-02-26T03:50:10;4.60;99.90
20416;DHT22;10367;52.202;5.996;2024-02-26T03:52:39;4.60;99.90
20416;DHT22;10367;52.202;5.996;2024-02-26T03:55:08;4.60;99.90
20416;DHT22;10367;52.202;5.996;2024-02-26T03:57:37;4.60;99.90
20416;DHT22;10367;52.202;5.996;2024-02-26T04:00:07;4.60;99.90
20416;DHT22;10367;52.202;5.996;2024-02-26T04:02:37;4.70;99.90
20416;DHT22;10367;52.202;5.996;2024-02-26T04:05:09;4.70;99.90
20416;DHT22;10367;52.202;5.996;2024-02-26T04:07:39;4.70;99.90
20416;DHT22;10367;52.202;5.996;2024-02-26T04:10:11;4.70;99.90
20416;DHT22;10367;52.202;5.996;2024-02-26T04:12:40;4.60;99.90
20416;DHT22;10367;52.202;5.996;2024-02-26T04:15:09;4.60;99.90
20416;DHT22;10367;52.202;5.996;2024-02-26T04:17:40;4.60;99.90
20416;DHT22;10367;52.202;5.996;2024-02-26T04:20:14;4.70;99.90
20416;DHT22;10367;52.202;5.996;2024-02-26T04:22:43;4.70;99.90
20416;DHT22;10367;52.202;5.996;2024-02-26T04:25:12;4.70;99.90
20416;DHT22;10367;52.202;5.996;2024-02-26T04:27:41;4.70;99.90
20416;DHT22;10367;52.202;5.996;2024-02-26T04:30:11;4.70;99.90
20416;DHT22;10367;52.202;5.996;2024-02-26T04:32:41;4.70;99.90
20416;DHT22;10367;52.202;5.996;2024-02-26T04:35:10;4.70;99.90
20416;DHT22;10367;52.202;5.996;2024-02-26T04:37:39;4.80;99.90
20416;DHT22;10367;52.202;5.996;2024-02-26T04:40:08;4.80;99.90
20416;DHT22;10367;52.202;5.996;2024-02-26T04:42:37;4.80;99.90
20416;DHT22;10367;52.202;5.996;2024-02-26T04:45:07;4.80;99.90
20416;DHT22;10367;52.202;5.996;2024-02-26T04:47:36;4.80;99.90
20416;DHT22;10367;52.202;5.996;2024-02-26T04:50:07;4.80;99.90
20416;DHT22;10367;52.202;5.996;2024-02-26T04:52:36;4.80;99.90
20416;DHT22;10367;52.202;5.996;2024-02-26T04:55:06;4.80;99.90
20416;DHT22;10367;52.202;5.996;2024-02-26T04:57:35;4.80;99.90
20416;DHT22;10367;52.202;5.996;2024-02-26T05:00:04;4.80;99.90
20416;DHT22;10367;52.202;5.996;2024-02-26T05:02:33;4.80;99.90
20416;DHT22;10367;52.202;5.996;2024-02-26T05:05:07;4.80;99.90
20416;DHT22;10367;52.202;5.996;2024-02-26T05:07:40;4.80;99.90
20416;DHT22;10367;52.202;5.996;2024-02-26T05:10:10;4.80;99.90
20416;DHT22;10367;52.202;5.996;2024-02-26T05:12:39;4.80;99.90
20416;DHT22;10367;52.202;5.996;2024-02-26T05:15:10;4.80;99.90
20416;DHT22;10367;52.202;5.996;2024-02-26T05:17:43;4.80;99.90
20416;DHT22;10367;52.202;5.996;2024-02-26T05:20:14;4.80;99.90
20416;DHT22;10367;52.202;5.996;2024-02-26T05:22:43;4.80;99.90
20416;DHT22;10367;52.202;5.996;2024-02-26T05:25:12;4.80;99.90
20416;DHT22;10367;52.202;5.996;2024-02-26T05:27:43;4.80;99.90
20416;DHT22;10367;52.202;5.996;2024-02-26T05:30:13;4.80;99.90
20416;DHT22;10367;52.202;5.996;2024-02-26T05:32:42;4.80;99.90
20416;DHT22;10367;52.202;5.996;2024-02-26T05:35:11;4.80;99.90
20416;DHT22;10367;52.202;5.996;2024-02-26T05:37:41;4.80;99.90
20416;DHT22;10367;52.202;5.996;2024-02-26T05:40:11;4.90;99.90
20416;DHT22;10367;52.202;5.996;2024-02-26T05:42:40;4.90;99.90
20416;DHT22;10367;52.202;5.996;2024-02-26T05:45:09;4.90;99.90
20416;DHT22;10367;52.202;5.996;2024-02-26T05:47:38;4.90;99.90
20416;DHT22;10367;52.202;5.996;2024-02-26T05:50:10;4.90;99.90
20416;DHT22;10367;52.202;5.996;2024-02-26T05:52:41;4.80;99.90
20416;DHT22;10367;52.202;5.996;2024-02-26T05:55:10;4.80;99.90
20416;DHT22;10367;52.202;5.996;2024-02-26T05:57:40;4.80;99.90
20416;DHT22;10367;52.202;5.996;2024-02-26T06:00:10;4.80;99.90
20416;DHT22;10367;52.202;5.996;2024-02-26T06:02:42;4.80;99.90
20416;DHT22;10367;52.202;5.996;2024-02-26T06:05:11;4.80;99.90
20416;DHT22;10367;52.202;5.996;2024-02-26T06:07:41;4.80;99.90
20416;DHT22;10367;52.202;5.996;2024-02-26T06:10:10;4.80;99.90
20416;DHT22;10367;52.202;5.996;2024-02-26T06:12:41;4.80;99.90
20416;DHT22;10367;52.202;5.996;2024-02-26T06:15:10;4.90;99.90
20416;DHT22;10367;52.202;5.996;2024-02-26T06:17:39;4.80;99.90
20416;DHT22;10367;52.202;5.996;2024-02-26T06:20:09;4.80;99.90
20416;DHT22;10367;52.202;5.996;2024-02-26T06:22:41;4.80;99.90
20416;DHT22;10367;52.202;5.996;2024-02-26T06:25:10;4.90;99.90
20416;DHT22;10367;52.202;5.996;2024-02-26T06:27:39;4.90;99.90
20416;DHT22;10367;52.202;5.996;2024-02-26T06:30:09;4.90;99.90
20416;DHT22;10367;52.202;5.996;2024-02-26T06:32:39;4.90;99.90
20416;DHT22;10367;52.202;5.996;2024-02-26T06:35:08;4.90;99.90
20416;DHT22;10367;52.202;5.996;2024-02-26T06:37:41;5.00;99.90
20416;DHT22;10367;52.202;5.996;2024-02-26T06:40:10;5.00;99.90
20416;DHT22;10367;52.202;5.996;2024-02-26T06:42:38;5.00;99.90
20416;DHT22;10367;52.202;5.996;2024-02-26T06:45:08;5.00;99.90
20416;DHT22;10367;52.202;5.996;2024-02-26T06:47:37;5.00;99.90
20416;DHT22;10367;52.202;5.996;2024-02-26T06:50:06;5.00;99.90
20416;DHT22;10367;52.202;5.996;2024-02-26T06:52:35;5.00;99.90
20416;DHT22;10367;52.202;5.996;2024-02-26T06:55:06;5.00;99.90
20416;DHT22;10367;52.202;5.996;2024-02-26T06:57:36;5.10;99.90
20416;DHT22;10367;52.202;5.996;2024-02-26T07:00:05;5.10;99.90
20416;DHT22;10367;52.202;5.996;2024-02-26T07:02:34;5.10;99.90
20416;DHT22;10367;52.202;5.996;2024-02-26T07:05:07;5.10;99.90
20416;DHT22;10367;52.202;5.996;2024-02-26T07:07:36;5.10;99.90
20416;DHT22;10367;52.202;5.996;2024-02-26T07:10:07;5.10;99.90
20416;DHT22;10367;52.202;5.996;2024-02-26T07:12:36;5.10;99.90
20416;DHT22;10367;52.202;5.996;2024-02-26T07:15:06;5.10;99.90
20416;DHT22;10367;52.202;5.996;2024-02-26T07:17:35;5.10;99.90
20416;DHT22;10367;52.202;5.996;2024-02-26T07:20:05;5.10;99.90
20416;DHT22;10367;52.202;5.996;2024-02-26T07:22:37;5.10;99.90
20416;DHT22;10367;52.202;5.996;2024-02-26T07:25:07;5.10;99.90
20416;DHT22;10367;52.202;5.996;2024-02-26T07:27:39;5.10;99.90
20416;DHT22;10367;52.202;5.996;2024-02-26T07:30:09;5.10;99.90
20416;DHT22;10367;52.202;5.996;2024-02-26T07:32:38;5.00;99.90
20416;DHT22;10367;52.202;5.996;2024-02-26T07:35:08;5.10;99.90
20416;DHT22;10367;52.202;5.996;2024-02-26T07:37:37;5.00;99.90
20416;DHT22;10367;52.202;5.996;2024-02-26T07:40:09;5.00;99.90
20416;DHT22;10367;52.202;5.996;2024-02-26T07:42:38;5.00;99.90
20416;DHT22;10367;52.202;5.996;2024-02-26T07:45:07;5.00;99.90
20416;DHT22;10367;52.202;5.996;2024-02-26T07:47:36;5.00;99.90
20416;DHT22;10367;52.202;5.996;2024-02-26T07:50:08;5.10;99.90
20416;DHT22;10367;52.202;5.996;2024-02-26T07:52:40;5.10;99.90
20416;DHT22;10367;52.202;5.996;2024-02-26T07:55:10;5.10;99.90
20416;DHT22;10367;52.202;5.996;2024-02-26T07:57:43;5.10;99.90
20416;DHT22;10367;52.202;5.996;2024-02-26T08:00:13;5.10;99.90
20416;DHT22;10367;52.202;5.996;2024-02-26T08:02:44;5.10;99.90
20416;DHT22;10367;52.202;5.996;2024-02-26T08:05:14;5.10;99.90
20416;DHT22;10367;52.202;5.996;2024-02-26T08:07:43;5.10;99.90
20416;DHT22;10367;52.202;5.996;2024-02-26T08:10:14;5.10;99.90
20416;DHT22;10367;52.202;5.996;2024-02-26T08:12:43;5.10;99.90
20416;DHT22;10367;52.202;5.996;2024-02-26T08:15:12;5.10;99.90
20416;DHT22;10367;52.202;5.996;2024-02-26T08:17:41;5.10;99.90
20416;DHT22;10367;52.202;5.996;2024-02-26T08:20:11;5.20;99.90
20416;DHT22;10367;52.202;5.996;2024-02-26T08:22:40;5.10;99.90
20416;DHT22;10367;52.202;5.996;2024-02-26T08:25:10;5.10;99.90
20416;DHT22;10367;52.202;5.996;2024-02-26T08:27:40;5.20;99.90
20416;DHT22;10367;52.202;5.996;2024-02-26T08:30:10;5.20;99.90
20416;DHT22;10367;52.202;5.996;2024-02-26T08:32:41;5.20;99.90
20416;DHT22;10367;52.202;5.996;2024-02-26T08:35:10;5.10;99.90
20416;DHT22;10367;52.202;5.996;2024-02-26T08:37:39;5.10;99.90
20416;DHT22;10367;52.202;5.996;2024-02-26T08:40:08;5.10;99.90
20416;DHT22;10367;52.202;5.996;2024-02-26T08:42:40;5.10;99.90
20416;DHT22;10367;52.202;5.996;2024-02-26T08:45:09;5.10;99.90
20416;DHT22;10367;52.202;5.996;2024-02-26T08:47:38;5.10;99.90
20416;DHT22;10367;52.202;5.996;2024-02-26T08:50:08;5.10;99.90
20416;DHT22;10367;52.202;5.996;2024-02-26T08:52:39;5.10;99.90
20416;DHT22;10367;52.202;5.996;2024-02-26T08:55:09;5.10;99.90
20416;DHT22;10367;52.202;5.996;2024-02-26T08:57:37;5.20;99.90
20416;DHT22;10367;52.202;5.996;2024-02-26T09:00:09;5.10;99.90
20416;DHT22;10367;52.202;5.996;2024-02-26T09:02:39;5.10;99.90
20416;DHT22;10367;52.202;5.996;2024-02-26T09:05:10;5.10;99.90
20416;DHT22;10367;52.202;5.996;2024-02-26T09:07:39;5.10;99.90
20416;DHT22;10367;52.202;5.996;2024-02-26T09:10:08;5.10;99.90
20416;DHT22;10367;52.202;5.996;2024-02-26T09:12:38;5.10;99.90
20416;DHT22;10367;52.202;5.996;2024-02-26T09:15:09;5.10;99.90
20416;DHT22;10367;52.202;5.996;2024-02-26T09:17:39;5.10;99.90
20416;DHT22;10367;52.202;5.996;2024-02-26T09:20:08;5.20;99.90
20416;DHT22;10367;52.202;5.996;2024-02-26T09:22:37;5.20;99.90
20416;DHT22;10367;52.202;5.996;2024-02-26T09:25:07;5.20;99.90
20416;DHT22;10367;52.202;5.996;2024-02-26T09:27:36;5.20;99.90
20416;DHT22;10367;52.202;5.996;2024-02-26T09:30:12;5.20;99.90
20416;DHT22;10367;52.202;5.996;2024-02-26T09:32:41;5.20;99.90
20416;DHT22;10367;52.202;5.996;2024-02-26T09:35:15;5.20;99.90
20416;DHT22;10367;52.202;5.996;2024-02-26T09:37:43;5.20;99.90
20416;DHT22;10367;52.202;5.996;2024-02-26T09:40:12;5.20;99.90
20416;DHT22;10367;52.202;5.996;2024-02-26T09:42:43;5.20;99.90
20416;DHT22;10367;52.202;5.996;2024-02-26T09:45:18;5.20;99.90
20416;DHT22;10367;52.202;5.996;2024-02-26T09:47:48;5.20;99.90
20416;DHT22;10367;52.202;5.996;2024-02-26T09:50:19;5.20;99.90
20416;DHT22;10367;52.202;5.996;2024-02-26T09:52:51;5.20;99.90
20416;DHT22;10367;52.202;5.996;2024-02-26T09:55:21;5.20;99.90
20416;DHT22;10367;52.202;5.996;2024-02-26T09:57:51;5.20;99.90
20416;DHT22;10367;52.202;5.996;2024-02-26T10:00:22;5.20;99.90
20416;DHT22;10367;52.202;5.996;2024-02-26T10:02:51;5.20;99.90
20416;DHT22;10367;52.202;5.996;2024-02-26T10:05:21;5.20;99.90
20416;DHT22;10367;52.202;5.996;2024-02-26T10:07:50;5.30;99.90
20416;DHT22;10367;52.202;5.996;2024-02-26T10:10:21;5.30;99.90
20416;DHT22;10367;52.202;5.996;2024-02-26T10:12:51;5.30;99.90
20416;DHT22;10367;52.202;5.996;2024-02-26T10:15:21;5.30;99.90
20416;DHT22;10367;52.202;5.996;2024-02-26T10:17:51;5.30;99.90
20416;DHT22;10367;52.202;5.996;2024-02-26T10:20:21;5.30;99.90
20416;DHT22;10367;52.202;5.996;2024-02-26T10:22:51;5.40;99.90
20416;DHT22;10367;52.202;5.996;2024-02-26T10:25:20;5.40;99.90
20416;DHT22;10367;52.202;5.996;2024-02-26T10:27:49;5.40;99.90
20416;DHT22;10367;52.202;5.996;2024-02-26T10:30:19;5.40;99.90
20416;DHT22;10367;52.202;5.996;2024-02-26T10:32:51;5.40;99.90
20416;DHT22;10367;52.202;5.996;2024-02-26T10:35:22;5.40;99.90
20416;DHT22;10367;52.202;5.996;2024-02-26T10:37:51;5.50;99.90
20416;DHT22;10367;52.202;5.996;2024-02-26T10:40:21;5.50;99.90
20416;DHT22;10367;52.202;5.996;2024-02-26T10:42:50;5.50;99.90
20416;DHT22;10367;52.202;5.996;2024-02-26T10:45:19;5.50;99.90
20416;DHT22;10367;52.202;5.996;2024-02-26T10:47:50;5.50;99.90
20416;DHT22;10367;52.202;5.996;2024-02-26T10:50:19;5.40;99.90
20416;DHT22;10367;52.202;5.996;2024-02-26T10:52:48;5.40;99.90
20416;DHT22;10367;52.202;5.996;2024-02-26T10:55:21;5.40;99.90
20416;DHT22;10367;52.202;5.996;2024-02-26T10:57:52;5.40;99.90
20416;DHT22;10367;52.202;5.996;2024-02-26T11:00:21;5.40;99.90
20416;DHT22;10367;52.202;5.996;2024-02-26T11:02:53;5.30;99.90
20416;DHT22;10367;52.202;5.996;2024-02-26T11:05:23;5.40;99.90
20416;DHT22;10367;52.202;5.996;2024-02-26T11:07:53;5.40;99.90
20416;DHT22;10367;52.202;5.996;2024-02-26T11:10:22;5.40;99.90
20416;DHT22;10367;52.202;5.996;2024-02-26T11:12:54;5.50;99.90
20416;DHT22;10367;52.202;5.996;2024-02-26T11:15:24;5.50;99.90
20416;DHT22;10367;52.202;5.996;2024-02-26T11:17:55;5.50;99.90
20416;DHT22;10367;52.202;5.996;2024-02-26T11:20:28;5.50;99.90
20416;DHT22;10367;52.202;5.996;2024-02-26T11:22:57;5.50;99.90
20416;DHT22;10367;52.202;5.996;2024-02-26T11:25:25;5.50;99.90
20416;DHT22;10367;52.202;5.996;2024-02-26T11:27:56;5.50;99.90
20416;DHT22;10367;52.202;5.996;2024-02-26T11:30:32;5.50;99.90
20416;DHT22;10367;52.202;5.996;2024-02-26T11:33:05;5.50;99.90
20416;DHT22;10367;52.202;5.996;2024-02-26T11:35:36;5.50;99.90
20416;DHT22;10367;52.202;5.996;2024-02-26T11:38:06;5.50;99.90
20416;DHT22;10367;52.202;5.996;2024-02-26T11:40:38;5.50;99.90
20416;DHT22;10367;52.202;5.996;2024-02-26T11:43:08;5.50;99.90
20416;DHT22;10367;52.202;5.996;2024-02-26T11:45:50;5.50;99.90
20416;DHT22;10367;52.202;5.996;2024-02-26T11:48:23;5.50;99.90
20416;DHT22;10367;52.202;5.996;2024-02-26T11:50:53;5.60;99.90
20416;DHT22;10367;52.202;5.996;2024-02-26T11:53:25;5.60;99.90
20416;DHT22;10367;52.202;5.996;2024-02-26T11:56:27;5.60;99.90
20416;DHT22;10367;52.202;5.996;2024-02-26T11:59:04;5.60;99.90
20416;DHT22;10367;52.202;5.996;2024-02-26T12:01:38;5.60;99.90
20416;DHT22;10367;52.202;5.996;2024-02-26T12:04:12;5.70;99.90
20416;DHT22;10367;52.202;5.996;2024-02-26T12:06:44;5.70;99.90
20416;DHT22;10367;52.202;5.996;2024-02-26T12:09:30;5.70;99.90
20416;DHT22;10367;52.202;5.996;2024-02-26T12:12:00;5.70;99.90
20416;DHT22;10367;52.202;5.996;2024-02-26T12:14:29;5.70;99.90
20416;DHT22;10367;52.202;5.996;2024-02-26T12:16:58;5.70;99.90
20416;DHT22;10367;52.202;5.996;2024-02-26T12:19:30;5.80;99.90
20416;DHT22;10367;52.202;5.996;2024-02-26T12:22:00;5.80;99.90
20416;DHT22;10367;52.202;5.996;2024-02-26T12:24:28;5.80;99.90
20416;DHT22;10367;52.202;5.996;2024-02-26T12:26:57;5.70;99.90
20416;DHT22;10367;52.202;5.996;2024-02-26T12:29:26;5.70;99.90
20416;DHT22;10367;52.202;5.996;2024-02-26T12:31:55;5.80;99.90
20416;DHT22;10367;52.202;5.996;2024-02-26T12:34:25;5.80;99.90
20416;DHT22;10367;52.202;5.996;2024-02-26T12:36:55;5.80;99.90
20416;DHT22;10367;52.202;5.996;2024-02-26T12:39:25;5.80;99.90
20416;DHT22;10367;52.202;5.996;2024-02-26T12:41:54;5.80;99.90
20416;DHT22;10367;52.202;5.996;2024-02-26T12:44:25;5.80;99.90
20416;DHT22;10367;52.202;5.996;2024-02-26T12:47:00;5.80;99.90
20416;DHT22;10367;52.202;5.996;2024-02-26T12:49:30;5.80;99.90
20416;DHT22;10367;52.202;5.996;2024-02-26T12:52:01;5.80;99.90
20416;DHT22;10367;52.202;5.996;2024-02-26T12:54:31;5.80;99.90
20416;DHT22;10367;52.202;5.996;2024-02-26T12:57:04;5.80;99.90
20416;DHT22;10367;52.202;5.996;2024-02-26T12:59:34;5.80;99.90
20416;DHT22;10367;52.202;5.996;2024-02-26T13:02:05;5.80;99.90
20416;DHT22;10367;52.202;5.996;2024-02-26T13:04:35;5.80;99.90
20416;DHT22;10367;52.202;5.996;2024-02-26T13:07:06;5.80;99.90
20416;DHT22;10367;52.202;5.996;2024-02-26T13:09:35;5.80;99.90
20416;DHT22;10367;52.202;5.996;2024-02-26T13:12:07;5.90;99.90
20416;DHT22;10367;52.202;5.996;2024-02-26T13:14:36;5.90;99.90
20416;DHT22;10367;52.202;5.996;2024-02-26T13:17:05;6.00;99.90
20416;DHT22;10367;52.202;5.996;2024-02-26T13:19:34;6.00;99.90
20416;DHT22;10367;52.202;5.996;2024-02-26T13:22:07;6.10;99.90
20416;DHT22;10367;52.202;5.996;2024-02-26T13:24:36;6.10;99.90
20416;DHT22;10367;52.202;5.996;2024-02-26T13:27:05;6.10;99.90
20416;DHT22;10367;52.202;5.996;2024-02-26T13:29:34;6.20;99.90
20416;DHT22;10367;52.202;5.996;2024-02-26T13:32:04;6.20;99.90
20416;DHT22;10367;52.202;5.996;2024-02-26T13:34:34;6.30;99.90
20416;DHT22;10367;52.202;5.996;2024-02-26T13:37:04;6.30;99.90
20416;DHT22;10367;52.202;5.996;2024-02-26T13:39:35;6.40;99.90
20416;DHT22;10367;52.202;5.996;2024-02-26T13:42:08;6.40;99.90
20416;DHT22;10367;52.202;5.996;2024-02-26T13:44:39;6.40;99.90
20416;DHT22;10367;52.202;5.996;2024-02-26T13:47:08;6.40;99.90
20416;DHT22;10367;52.202;5.996;2024-02-26T13:49:37;6.40;99.90
20416;DHT22;10367;52.202;5.996;2024-02-26T13:52:06;6.40;99.90
20416;DHT22;10367;52.202;5.996;2024-02-26T13:54:36;6.50;99.90
20416;DHT22;10367;52.202;5.996;2024-02-26T13:57:06;6.40;99.90
20416;DHT22;10367;52.202;5.996;2024-02-26T13:59:36;6.50;99.90
20416;DHT22;10367;52.202;5.996;2024-02-26T14:02:05;6.50;99.90
20416;DHT22;10367;52.202;5.996;2024-02-26T14:04:33;6.50;99.90
20416;DHT22;10367;52.202;5.996;2024-02-26T14:07:03;6.50;99.90
20416;DHT22;10367;52.202;5.996;2024-02-26T14:09:32;6.50;99.90
20416;DHT22;10367;52.202;5.996;2024-02-26T14:12:17;6.50;99.90
20416;DHT22;10367;52.202;5.996;2024-02-26T14:14:50;6.50;99.90
20416;DHT22;10367;52.202;5.996;2024-02-26T14:17:21;6.50;99.90
20416;DHT22;10367;52.202;5.996;2024-02-26T14:19:50;6.60;99.90
20416;DHT22;10367;52.202;5.996;2024-02-26T14:22:18;6.50;99.90
20416;DHT22;10367;52.202;5.996;2024-02-26T14:24:47;6.50;99.90
20416;DHT22;10367;52.202;5.996;2024-02-26T14:27:19;6.50;99.90
20416;DHT22;10367;52.202;5.996;2024-02-26T14:29:50;6.50;99.90
20416;DHT22;10367;52.202;5.996;2024-02-26T14:32:18;6.50;99.90
20416;DHT22;10367;52.202;5.996;2024-02-26T14:34:47;6.50;99.90
20416;DHT22;10367;52.202;5.996;2024-02-26T14:37:16;6.50;99.90
20416;DHT22;10367;52.202;5.996;2024-02-26T14:39:45;6.50;99.90
20416;DHT22;10367;52.202;5.996;2024-02-26T14:42:16;6.50;99.90
20416;DHT22;10367;52.202;5.996;2024-02-26T14:44:47;6.50;99.90
20416;DHT22;10367;52.202;5.996;2024-02-26T14:47:15;6.60;99.90
20416;DHT22;10367;52.202;5.996;2024-02-26T14:49:44;6.60;99.90
20416;DHT22;10367;52.202;5.996;2024-02-26T14:52:15;6.60;99.90
20416;DHT22;10367;52.202;5.996;2024-02-26T14:54:44;6.60;99.90
20416;DHT22;10367;52.202;5.996;2024-02-26T14:57:14;6.70;99.90
20416;DHT22;10367;52.202;5.996;2024-02-26T14:59:47;6.70;99.90
20416;DHT22;10367;52.202;5.996;2024-02-26T15:02:17;6.70;99.90
20416;DHT22;10367;52.202;5.996;2024-02-26T15:04:47;6.70;99.90
20416;DHT22;10367;52.202;5.996;2024-02-26T15:07:16;6.70;99.90
20416;DHT22;10367;52.202;5.996;2024-02-26T15:09:47;6.70;99.90
20416;DHT22;10367;52.202;5.996;2024-02-26T15:12:16;6.70;99.90
20416;DHT22;10367;52.202;5.996;2024-02-26T15:14:54;6.70;99.90
20416;DHT22;10367;52.202;5.996;2024-02-26T15:17:24;6.70;99.90
20416;DHT22;10367;52.202;5.996;2024-02-26T15:19:55;6.60;99.90
20416;DHT22;10367;52.202;5.996;2024-02-26T15:22:26;6.60;99.90
20416;DHT22;10367;52.202;5.996;2024-02-26T15:24:55;6.60;99.90
20416;DHT22;10367;52.202;5.996;2024-02-26T15:27:24;6.60;99.90
20416;DHT22;10367;52.202;5.996;2024-02-26T15:29:54;6.60;99.90
20416;DHT22;10367;52.202;5.996;2024-02-26T15:32:26;6.60;99.90
20416;DHT22;10367;52.202;5.996;2024-02-26T15:34:55;6.60;99.90
20416;DHT22;10367;52.202;5.996;2024-02-26T15:37:24;6.60;99.90
20416;DHT22;10367;52.202;5.996;2024-02-26T15:39:53;6.50;99.90
20416;DHT22;10367;52.202;5.996;2024-02-26T15:42:22;6.50;99.90
20416;DHT22;10367;52.202;5.996;2024-02-26T15:44:54;6.50;99.90
20416;DHT22;10367;52.202;5.996;2024-02-26T15:47:23;6.50;99.90
20416;DHT22;10367;52.202;5.996;2024-02-26T15:49:51;6.50;99.90
20416;DHT22;10367;52.202;5.996;2024-02-26T15:52:20;6.50;99.90
20416;DHT22;10367;52.202;5.996;2024-02-26T15:54:49;6.50;99.90
20416;DHT22;10367;52.202;5.996;2024-02-26T15:57:19;6.40;99.90
20416;DHT22;10367;52.202;5.996;2024-02-26T15:59:48;6.40;99.90
20416;DHT22;10367;52.202;5.996;2024-02-26T16:02:21;6.40;99.90